createdAt,value
2022-09-02T00:00:21.120Z,99.49
2022-09-02T00:01:21.066Z,99.59
2022-09-02T00:02:21.298Z,99.44
2022-09-02T00:03:21.267Z,99.69
2022-09-02T00:04:20.987Z,99.99
2022-09-02T00:05:20.926Z,99.49
2022-09-02T00:06:20.905Z,99.59
2022-09-02T00:07:20.881Z,99.99
2022-09-02T00:08:20.918Z,99.99
2022-09-02T00:09:20.806Z,99.79
2022-09-02T00:10:20.775Z,99.59
2022-09-02T00:11:20.732Z,99.39
2022-09-02T00:12:20.717Z,99.84
2022-09-02T00:13:20.827Z,99.74
2022-09-02T00:14:20.707Z,99.99
2022-09-02T00:15:20.628Z,99.99
2022-09-02T00:16:20.635Z,99.99
2022-09-02T00:17:20.539Z,99.99
2022-09-02T00:18:20.532Z,99.99
2022-09-02T00:19:20.529Z,99.99
2022-09-02T00:20:20.476Z,99.99
2022-09-02T00:21:20.470Z,99.99
2022-09-02T00:22:20.387Z,99.99
2022-09-02T00:23:20.505Z,99.99
2022-09-02T00:24:20.402Z,99.99
2022-09-02T00:25:20.288Z,99.99
2022-09-02T00:26:20.269Z,99.99
2022-09-02T00:27:20.237Z,99.99
2022-09-02T00:28:20.194Z,99.99
2022-09-02T00:29:20.177Z,99.99
2022-09-02T00:30:20.243Z,99.99
2022-09-02T00:31:20.119Z,99.99
2022-09-02T00:32:20.058Z,99.99
2022-09-02T00:33:20.110Z,99.99
2022-09-02T00:34:19.996Z,99.99
2022-09-02T00:35:19.989Z,99.99
2022-09-02T00:36:20.011Z,99.99
2022-09-02T00:37:19.990Z,99.99
2022-09-02T00:38:19.902Z,99.99
2022-09-02T00:39:19.837Z,99.99
2022-09-02T00:40:19.837Z,99.99
2022-09-02T00:41:19.774Z,99.99
2022-09-02T00:42:19.820Z,99.99
2022-09-02T00:43:19.765Z,99.99
2022-09-02T00:44:19.671Z,99.99
2022-09-02T00:45:19.647Z,99.99
2022-09-02T00:46:19.603Z,99.99
2022-09-02T00:47:19.587Z,99.99
2022-09-02T00:48:19.644Z,99.99
2022-09-02T00:49:19.584Z,99.99
2022-09-02T00:50:19.516Z,99.99
2022-09-02T00:51:19.472Z,99.99
2022-09-02T00:52:19.402Z,99.99
2022-09-02T00:53:19.557Z,99.99
2022-09-02T00:54:19.351Z,99.99
2022-09-02T00:55:19.310Z,99.99
2022-09-02T00:56:19.305Z,99.99
2022-09-02T00:57:19.253Z,99.99
2022-09-02T00:58:19.209Z,99.99
2022-09-02T00:59:19.294Z,99.99
2022-09-02T01:00:19.170Z,99.99
2022-09-02T01:01:19.288Z,99.99
2022-09-02T01:02:19.228Z,99.99
2022-09-02T01:03:19.148Z,99.99
2022-09-02T01:04:19.038Z,99.99
2022-09-02T01:05:19.063Z,99.99
2022-09-02T01:06:18.958Z,99.99
2022-09-02T01:07:18.923Z,99.99
2022-09-02T01:08:18.899Z,99.99
2022-09-02T01:09:18.875Z,99.99
2022-09-02T01:10:18.932Z,99.99
2022-09-02T01:11:18.783Z,99.99
2022-09-02T01:12:18.761Z,99.99
2022-09-02T01:13:18.720Z,99.99
2022-09-02T01:14:18.716Z,99.99
2022-09-02T01:15:18.677Z,99.99
2022-09-02T01:16:18.735Z,99.99
2022-09-02T01:17:18.599Z,99.99
2022-09-02T01:18:18.589Z,99.99
2022-09-02T01:19:18.551Z,99.99
2022-09-02T01:20:18.519Z,99.99
2022-09-02T01:21:18.479Z,99.99
2022-09-02T01:22:18.508Z,99.99
2022-09-02T01:23:18.478Z,99.99
2022-09-02T01:24:18.388Z,99.99
2022-09-02T01:25:18.343Z,99.99
2022-09-02T01:26:18.325Z,99.99
2022-09-02T01:27:18.283Z,99.99
2022-09-02T01:28:18.408Z,99.99
2022-09-02T01:29:18.251Z,99.99
2022-09-02T01:30:18.211Z,99.99
2022-09-02T01:31:18.181Z,99.99
2022-09-02T01:32:18.108Z,99.99
2022-09-02T01:33:18.115Z,99.99
2022-09-02T01:34:18.152Z,99.99
2022-09-02T01:35:18.003Z,99.99
2022-09-02T01:36:17.967Z,99.99
2022-09-02T01:37:17.939Z,99.99
2022-09-02T01:38:17.970Z,99.99
2022-09-02T01:39:17.913Z,99.99
2022-09-02T01:40:17.947Z,99.99
2022-09-02T01:41:17.851Z,99.99
2022-09-02T01:42:17.838Z,99.99
2022-09-02T01:43:17.755Z,99.99
2022-09-02T01:44:17.847Z,99.99
2022-09-02T01:45:17.821Z,99.99
2022-09-02T01:46:17.745Z,99.99
2022-09-02T01:47:17.628Z,99.99
2022-09-02T01:48:17.789Z,99.99
2022-09-02T01:49:17.603Z,99.99
2022-09-02T01:50:17.528Z,99.99
2022-09-02T01:51:17.581Z,99.99
2022-09-02T01:52:17.476Z,99.99
2022-09-02T01:53:17.494Z,99.99
2022-09-02T01:54:17.398Z,99.99
2022-09-02T01:55:17.367Z,99.99
2022-09-02T01:56:17.413Z,99.99
2022-09-02T01:57:17.314Z,99.99
2022-09-02T01:58:17.258Z,99.99
2022-09-02T01:59:17.226Z,99.99
2022-09-02T02:00:17.210Z,99.99
2022-09-02T02:01:17.328Z,99.99
2022-09-02T02:02:17.303Z,99.99
2022-09-02T02:03:17.166Z,99.99
2022-09-02T02:04:17.116Z,99.99
2022-09-02T02:05:17.058Z,99.99
2022-09-02T02:06:17.025Z,99.99
2022-09-02T02:07:17.034Z,99.99
2022-09-02T02:08:17.010Z,99.99
2022-09-02T02:09:16.920Z,99.99
2022-09-02T02:10:16.940Z,99.99
2022-09-02T02:11:16.868Z,99.99
2022-09-02T02:12:16.800Z,99.99
2022-09-02T02:13:16.892Z,99.99
2022-09-02T02:14:16.829Z,99.99
2022-09-02T02:15:16.719Z,99.99
2022-09-02T02:16:16.734Z,99.99
2022-09-02T02:17:16.706Z,99.99
2022-09-02T02:18:16.737Z,99.99
2022-09-02T02:19:16.600Z,99.99
2022-09-02T02:20:16.565Z,99.99
2022-09-02T02:21:16.536Z,99.99
2022-09-02T02:22:16.503Z,99.99
2022-09-02T02:23:16.455Z,99.99
2022-09-02T02:24:16.614Z,99.99
2022-09-02T02:25:16.384Z,99.99
2022-09-02T02:26:16.362Z,99.99
2022-09-02T02:27:16.326Z,99.99
2022-09-02T02:28:16.284Z,99.99
2022-09-02T02:29:16.263Z,99.99
2022-09-02T02:30:16.396Z,99.99
2022-09-02T02:31:16.252Z,99.99
2022-09-02T02:32:16.150Z,99.99
2022-09-02T02:33:16.142Z,99.99
2022-09-02T02:34:16.082Z,99.99
2022-09-02T02:35:16.085Z,99.99
2022-09-02T02:36:16.140Z,99.99
2022-09-02T02:37:16.058Z,99.99
2022-09-02T02:38:15.975Z,99.99
2022-09-02T02:39:15.939Z,99.99
2022-09-02T02:40:15.928Z,99.99
2022-09-02T02:41:15.884Z,99.99
2022-09-02T02:42:15.948Z,99.99
2022-09-02T02:43:15.834Z,99.99
2022-09-02T02:44:15.757Z,99.99
2022-09-02T02:45:25.225Z,99.99
2022-09-02T02:46:16.619Z,99.99
2022-09-02T02:47:16.575Z,99.99
2022-09-02T02:48:15.791Z,99.99
2022-09-02T02:49:15.646Z,99.99
2022-09-02T02:50:15.563Z,99.99
2022-09-02T02:51:15.523Z,99.99
2022-09-02T02:52:15.500Z,99.99
2022-09-02T02:53:15.515Z,99.99
2022-09-02T02:54:15.500Z,99.99
2022-09-02T02:55:15.401Z,99.99
2022-09-02T02:56:15.387Z,99.99
2022-09-02T02:57:15.327Z,99.99
2022-09-02T02:58:16.627Z,99.99
2022-09-02T02:59:15.382Z,99.99
2022-09-02T03:00:19.089Z,99.99
2022-09-02T03:01:16.252Z,99.99
2022-09-02T03:02:15.290Z,99.99
2022-09-02T03:03:15.139Z,99.99
2022-09-02T03:04:15.119Z,99.99
2022-09-02T03:05:15.201Z,99.99
2022-09-02T03:06:15.053Z,99.99
2022-09-02T03:07:15.025Z,99.99
2022-09-02T03:08:14.975Z,99.99
2022-09-02T03:09:14.978Z,99.99
2022-09-02T03:10:14.976Z,99.99
2022-09-02T03:11:14.962Z,99.99
2022-09-02T03:12:14.857Z,99.99
2022-09-02T03:13:14.869Z,99.99
2022-09-02T03:14:15.689Z,99.99
2022-09-02T03:15:14.755Z,99.99
2022-09-02T03:16:14.823Z,99.99
2022-09-02T03:17:14.757Z,99.99
2022-09-02T03:18:14.696Z,99.99
2022-09-02T03:19:14.618Z,99.99
2022-09-02T03:20:14.608Z,99.99
2022-09-02T03:21:14.602Z,99.99
2022-09-02T03:22:14.612Z,99.99
2022-09-02T03:23:14.565Z,99.99
2022-09-02T03:24:14.472Z,99.99
2022-09-02T03:25:14.426Z,99.99
2022-09-02T03:26:14.390Z,99.99
2022-09-02T03:27:14.362Z,99.99
2022-09-02T03:28:14.419Z,99.99
2022-09-02T03:29:14.312Z,99.99
2022-09-02T03:30:14.274Z,99.99
2022-09-02T03:31:14.302Z,99.99
2022-09-02T03:32:14.846Z,99.99
2022-09-02T03:33:14.170Z,99.99
2022-09-02T03:34:14.200Z,99.99
2022-09-02T03:35:14.110Z,99.99
2022-09-02T03:36:14.076Z,99.99
2022-09-02T03:37:14.157Z,99.99
2022-09-02T03:38:14.023Z,99.99
2022-09-02T03:39:14.039Z,99.99
2022-09-02T03:40:13.960Z,99.99
2022-09-02T03:41:13.920Z,99.99
2022-09-02T03:42:19.386Z,99.99
2022-09-02T03:43:13.963Z,99.99
2022-09-02T03:44:13.823Z,99.99
2022-09-02T03:45:14.278Z,99.99
2022-09-02T03:46:13.858Z,99.99
2022-09-02T03:47:14.706Z,99.99
2022-09-02T03:48:13.716Z,99.99
2022-09-02T03:49:13.654Z,99.99
2022-09-02T03:50:13.631Z,99.99
2022-09-02T03:51:13.655Z,99.99
2022-09-02T03:52:13.566Z,99.99
2022-09-02T03:53:19.513Z,99.99
2022-09-02T03:54:13.502Z,99.99
2022-09-02T03:55:13.481Z,99.99
2022-09-02T03:56:13.442Z,99.99
2022-09-02T03:57:13.469Z,99.99
2022-09-02T03:58:15.091Z,99.99
2022-09-02T03:59:14.144Z,99.99
2022-09-02T04:00:14.095Z,99.99
2022-09-02T04:01:13.342Z,99.99
2022-09-02T04:02:13.400Z,99.99
2022-09-02T04:03:15.753Z,99.99
2022-09-02T04:04:13.182Z,99.99
2022-09-02T04:05:15.904Z,99.99
2022-09-02T04:06:13.113Z,99.99
2022-09-02T04:07:13.093Z,99.99
2022-09-02T04:08:13.032Z,99.99
2022-09-02T04:09:13.069Z,99.99
2022-09-02T04:10:12.996Z,99.99
2022-09-02T04:11:12.937Z,99.99
2022-09-02T04:12:12.905Z,99.99
2022-09-02T04:13:12.967Z,99.99
2022-09-02T04:14:12.901Z,99.99
2022-09-02T04:15:12.811Z,99.99
2022-09-02T04:16:12.907Z,99.99
2022-09-02T04:17:12.768Z,99.99
2022-09-02T04:18:12.713Z,99.99
2022-09-02T04:19:12.792Z,99.99
2022-09-02T04:20:12.671Z,99.99
2022-09-02T04:21:12.643Z,99.99
2022-09-02T04:22:12.595Z,99.99
2022-09-02T04:23:12.549Z,99.99
2022-09-02T04:24:12.538Z,99.99
2022-09-02T04:25:13.221Z,99.99
2022-09-02T04:26:12.500Z,99.99
2022-09-02T04:27:12.426Z,99.99
2022-09-02T04:28:12.439Z,99.99
2022-09-02T04:29:12.356Z,99.99
2022-09-02T04:30:12.324Z,99.99
2022-09-02T04:31:12.394Z,99.99
2022-09-02T04:32:12.263Z,99.99
2022-09-02T04:33:12.262Z,99.99
2022-09-02T04:34:12.222Z,99.99
2022-09-02T04:35:12.179Z,99.99
2022-09-02T04:36:12.882Z,99.99
2022-09-02T04:37:12.705Z,99.99
2022-09-02T04:38:12.065Z,99.99
2022-09-02T04:39:12.030Z,99.99
2022-09-02T04:40:12.056Z,99.99
2022-09-02T04:41:11.964Z,99.99
2022-09-02T04:42:12.054Z,99.99
2022-09-02T04:43:11.906Z,99.99
2022-09-02T04:44:11.875Z,99.99
2022-09-02T04:45:11.833Z,99.99
2022-09-02T04:46:11.854Z,99.99
2022-09-02T04:47:11.845Z,99.99
2022-09-02T04:48:12.055Z,99.99
2022-09-02T04:49:11.709Z,99.99
2022-09-02T04:50:11.682Z,99.99
2022-09-02T04:51:11.655Z,99.99
2022-09-02T04:52:11.614Z,99.99
2022-09-02T04:53:11.576Z,99.99
2022-09-02T04:54:11.616Z,99.99
2022-09-02T04:55:11.507Z,99.99
2022-09-02T04:56:11.509Z,99.99
2022-09-02T04:57:11.444Z,99.99
2022-09-02T04:58:11.412Z,99.99
2022-09-02T04:59:11.379Z,99.99
2022-09-02T05:00:11.638Z,99.79
2022-09-02T05:01:11.340Z,99.99
2022-09-02T05:02:11.419Z,99.74
2022-09-02T05:03:11.280Z,99.64
2022-09-02T05:04:11.277Z,99.33
2022-09-02T05:05:11.327Z,99.33
2022-09-02T05:06:11.167Z,99.54
2022-09-02T05:07:11.123Z,99.08
2022-09-02T05:08:11.140Z,98.98
2022-09-02T05:09:11.056Z,98.77
2022-09-02T05:10:11.023Z,98.88
2022-09-02T05:11:11.077Z,98.57
2022-09-02T05:12:10.956Z,98.57
2022-09-02T05:13:11.010Z,98.68
2022-09-02T05:14:10.895Z,98.77
2022-09-02T05:15:10.874Z,98.11
2022-09-02T05:16:10.886Z,98.47
2022-09-02T05:17:10.798Z,98.06
2022-09-02T05:18:10.903Z,98.98
2022-09-02T05:19:10.731Z,98.16
2022-09-02T05:20:10.767Z,98.32
2022-09-02T05:21:10.670Z,97.61
2022-09-02T05:22:10.712Z,97.30
2022-09-02T05:23:10.615Z,97.50
2022-09-02T05:24:10.628Z,97.46
2022-09-02T05:25:10.556Z,96.84
2022-09-02T05:26:10.514Z,96.95
2022-09-02T05:27:10.474Z,96.19
2022-09-02T05:28:10.556Z,96.44
2022-09-02T05:29:10.509Z,96.30
2022-09-02T05:30:10.381Z,96.54
2022-09-02T05:31:10.416Z,96.50
2022-09-02T05:32:10.321Z,96.50
2022-09-02T05:33:10.296Z,96.54
2022-09-02T05:34:10.253Z,96.60
2022-09-02T05:35:10.317Z,96.50
2022-09-02T05:36:10.187Z,95.98
2022-09-02T05:37:10.151Z,95.78
2022-09-02T05:38:10.133Z,95.23
2022-09-02T05:39:10.086Z,95.53
2022-09-02T05:40:10.130Z,95.03
2022-09-02T05:41:10.098Z,94.92
2022-09-02T05:42:09.996Z,94.72
2022-09-02T05:43:10.004Z,94.42
2022-09-02T05:44:09.935Z,93.80
2022-09-02T05:45:09.907Z,94.17
2022-09-02T05:46:09.935Z,94.07
2022-09-02T05:47:09.929Z,94.47
2022-09-02T05:48:09.808Z,93.51
2022-09-02T05:49:09.778Z,93.71
2022-09-02T05:50:09.743Z,93.71
2022-09-02T05:51:09.718Z,93.06
2022-09-02T05:52:09.681Z,92.55
2022-09-02T05:53:14.218Z,92.25
2022-09-02T05:54:09.616Z,92.00
2022-09-02T05:55:10.277Z,91.60
2022-09-02T05:56:09.551Z,91.49
2022-09-02T05:57:09.518Z,91.14
2022-09-02T05:58:09.616Z,91.35
2022-09-02T05:59:09.456Z,90.59
2022-09-02T06:00:09.425Z,90.53
2022-09-02T06:01:09.394Z,89.42
2022-09-02T06:02:09.452Z,89.78
2022-09-02T06:03:09.352Z,89.48
2022-09-02T06:04:09.424Z,89.54
2022-09-02T06:05:09.279Z,89.64
2022-09-02T06:06:09.244Z,89.33
2022-09-02T06:07:09.209Z,89.13
2022-09-02T06:08:09.174Z,88.32
2022-09-02T06:09:09.165Z,88.21
2022-09-02T06:10:09.183Z,88.21
2022-09-02T06:11:09.111Z,88.21
2022-09-02T06:12:09.057Z,88.28
2022-09-02T06:13:09.025Z,88.28
2022-09-02T06:14:08.989Z,88.48
2022-09-02T06:15:08.959Z,87.46
2022-09-02T06:16:09.087Z,87.57
2022-09-02T06:17:08.904Z,87.57
2022-09-02T06:18:08.868Z,87.67
2022-09-02T06:19:08.840Z,87.57
2022-09-02T06:20:08.837Z,87.37
2022-09-02T06:21:08.779Z,87.57
2022-09-02T06:22:09.143Z,87.57
2022-09-02T06:23:08.781Z,87.87
2022-09-02T06:24:08.683Z,87.57
2022-09-02T06:25:08.653Z,87.37
2022-09-02T06:26:08.641Z,86.82
2022-09-02T06:27:08.591Z,86.91
2022-09-02T06:28:08.643Z,86.82
2022-09-02T06:29:08.534Z,86.61
2022-09-02T06:30:08.502Z,86.31
2022-09-02T06:31:08.534Z,86.86
2022-09-02T06:32:13.129Z,86.82
2022-09-02T06:33:08.412Z,85.80
2022-09-02T06:34:08.429Z,85.90
2022-09-02T06:35:08.348Z,86.00
2022-09-02T06:36:08.319Z,85.70
2022-09-02T06:37:08.322Z,85.70
2022-09-02T06:38:08.258Z,86.16
2022-09-02T06:39:08.318Z,85.96
2022-09-02T06:40:08.286Z,85.05
2022-09-02T06:41:08.171Z,85.56
2022-09-02T06:42:08.142Z,85.46
2022-09-02T06:43:08.150Z,85.86
2022-09-02T06:44:08.087Z,85.86
2022-09-02T06:45:08.089Z,85.52
2022-09-02T06:46:08.049Z,85.11
2022-09-02T06:47:07.985Z,85.21
2022-09-02T06:48:07.983Z,85.27
2022-09-02T06:49:07.929Z,84.97
2022-09-02T06:50:07.981Z,84.56
2022-09-02T06:51:07.882Z,85.27
2022-09-02T06:52:07.831Z,85.07
2022-09-02T06:53:07.807Z,84.36
2022-09-02T06:54:07.770Z,84.87
2022-09-02T06:55:07.736Z,85.07
2022-09-02T06:56:07.757Z,84.16
2022-09-02T06:57:07.679Z,84.16
2022-09-02T06:58:07.650Z,84.56
2022-09-02T06:59:07.630Z,84.47
2022-09-02T07:00:07.590Z,84.47
2022-09-02T07:01:09.314Z,84.53
2022-09-02T07:02:07.741Z,83.76
2022-09-02T07:03:07.515Z,84.63
2022-09-02T07:04:07.468Z,85.33
2022-09-02T07:05:07.472Z,84.56
2022-09-02T07:06:07.416Z,84.02
2022-09-02T07:07:07.434Z,84.36
2022-09-02T07:08:07.341Z,84.73
2022-09-02T07:09:07.326Z,84.93
2022-09-02T07:10:07.284Z,84.53
2022-09-02T07:11:07.250Z,83.61
2022-09-02T07:12:07.364Z,84.12
2022-09-02T07:13:07.192Z,84.12
2022-09-02T07:14:07.163Z,84.12
2022-09-02T07:15:07.139Z,83.72
2022-09-02T07:16:07.106Z,84.02
2022-09-02T07:17:07.197Z,83.51
2022-09-02T07:18:07.154Z,83.72
2022-09-02T07:19:12.500Z,83.41
2022-09-02T07:20:07.029Z,83.11
2022-09-02T07:21:06.984Z,83.92
2022-09-02T07:22:06.932Z,84.22
2022-09-02T07:23:06.963Z,84.19
2022-09-02T07:24:06.890Z,83.88
2022-09-02T07:25:06.859Z,83.61
2022-09-02T07:26:06.837Z,83.88
2022-09-02T07:27:06.795Z,83.88
2022-09-02T07:28:06.763Z,83.41
2022-09-02T07:29:06.799Z,83.47
2022-09-02T07:30:06.692Z,83.58
2022-09-02T07:31:06.717Z,83.58
2022-09-02T07:32:06.623Z,83.58
2022-09-02T07:33:06.588Z,83.33
2022-09-02T07:34:06.563Z,83.27
2022-09-02T07:35:06.597Z,83.44
2022-09-02T07:36:06.561Z,82.12
2022-09-02T07:37:10.632Z,82.12
2022-09-02T07:38:06.455Z,82.36
2022-09-02T07:39:06.410Z,81.82
2022-09-02T07:40:06.440Z,81.92
2022-09-02T07:41:06.359Z,82.08
2022-09-02T07:42:07.563Z,82.02
2022-09-02T07:43:06.294Z,82.02
2022-09-02T07:44:06.259Z,81.98
2022-09-02T07:45:06.226Z,81.68
2022-09-02T07:46:06.310Z,81.48
2022-09-02T07:47:06.229Z,81.57
2022-09-02T07:48:06.206Z,81.78
2022-09-02T07:49:06.107Z,82.18
2022-09-02T07:50:22.012Z,82.08
2022-09-02T07:51:06.069Z,82.18
2022-09-02T07:52:06.069Z,81.78
2022-09-02T07:53:05.994Z,82.14
2022-09-02T07:54:05.957Z,81.64
2022-09-02T07:55:05.929Z,81.64
2022-09-02T07:56:05.898Z,81.50
2022-09-02T07:57:05.917Z,80.43
2022-09-02T07:58:05.997Z,80.79
2022-09-02T07:59:05.808Z,80.49
2022-09-02T08:00:05.777Z,80.39
2022-09-02T08:01:05.807Z,80.49
2022-09-02T08:02:05.809Z,80.49
2022-09-02T08:03:05.742Z,80.79
2022-09-02T08:04:06.414Z,79.79
2022-09-02T08:05:05.629Z,80.05
2022-09-02T08:06:05.601Z,80.15
2022-09-02T08:07:05.569Z,79.34
2022-09-02T08:08:05.665Z,79.54
2022-09-02T08:09:05.662Z,79.44
2022-09-02T08:10:05.492Z,79.64
2022-09-02T08:11:05.460Z,79.34
2022-09-02T08:12:05.426Z,79.44
2022-09-02T08:13:05.566Z,79.94
2022-09-02T08:14:05.373Z,80.05
2022-09-02T08:15:05.398Z,79.61
2022-09-02T08:16:05.388Z,79.61
2022-09-02T08:17:05.278Z,80.11
2022-09-02T08:18:05.302Z,79.00
2022-09-02T08:19:05.218Z,79.21
2022-09-02T08:20:07.274Z,79.00
2022-09-02T08:21:05.228Z,78.96
2022-09-02T08:22:05.128Z,78.66
2022-09-02T08:23:33.258Z,78.66
2022-09-02T08:24:05.067Z,78.56
2022-09-02T08:25:05.245Z,78.36
2022-09-02T08:26:05.012Z,77.75
2022-09-02T08:27:04.982Z,77.25
2022-09-02T08:28:04.954Z,77.25
2022-09-02T08:29:04.928Z,77.25
2022-09-02T08:30:04.961Z,77.21
2022-09-02T08:31:04.925Z,77.31
2022-09-02T08:32:04.882Z,77.31
2022-09-02T08:33:04.854Z,77.01
2022-09-02T08:34:04.779Z,76.81
2022-09-02T08:35:04.748Z,76.97
2022-09-02T08:36:04.771Z,76.37
2022-09-02T08:37:04.742Z,76.07
2022-09-02T08:38:04.662Z,75.40
2022-09-02T08:39:04.628Z,74.96
2022-09-02T08:40:04.774Z,75.36
2022-09-02T08:41:04.860Z,75.26
2022-09-02T08:42:04.651Z,75.16
2022-09-02T08:43:04.509Z,75.26
2022-09-02T08:44:04.505Z,75.36
2022-09-02T08:45:04.451Z,74.82
2022-09-02T08:46:04.510Z,74.73
2022-09-02T08:47:04.462Z,74.93
2022-09-02T08:48:04.368Z,74.89
2022-09-02T08:49:04.342Z,74.73
2022-09-02T08:50:04.311Z,74.73
2022-09-02T08:51:04.429Z,73.52
2022-09-02T08:52:04.253Z,73.82
2022-09-02T08:53:04.383Z,73.01
2022-09-02T08:54:04.231Z,73.28
2022-09-02T08:55:04.182Z,72.47
2022-09-02T08:56:04.139Z,73.18
2022-09-02T08:57:04.150Z,72.84
2022-09-02T08:58:04.077Z,72.84
2022-09-02T08:59:04.113Z,72.64
2022-09-02T09:00:04.043Z,71.94
2022-09-02T09:01:04.089Z,71.63
2022-09-02T09:02:04.002Z,72.03
2022-09-02T09:03:03.935Z,71.73
2022-09-02T09:04:04.208Z,70.93
2022-09-02T09:05:03.910Z,72.20
2022-09-02T09:06:03.850Z,71.30
2022-09-02T09:07:03.844Z,71.40
2022-09-02T09:08:03.790Z,71.09
2022-09-02T09:09:03.765Z,71.60
2022-09-02T09:10:03.893Z,71.36
2022-09-02T09:11:03.720Z,70.76
2022-09-02T09:12:03.681Z,70.50
2022-09-02T09:13:03.653Z,71.20
2022-09-02T09:14:03.625Z,71.30
2022-09-02T09:15:03.633Z,71.20
2022-09-02T09:16:03.695Z,71.56
2022-09-02T09:17:03.560Z,71.06
2022-09-02T09:18:03.515Z,71.06
2022-09-02T09:19:08.165Z,70.86
2022-09-02T09:20:04.245Z,69.25
2022-09-02T09:21:03.437Z,69.38
2022-09-02T09:22:05.368Z,69.18
2022-09-02T09:23:04.338Z,69.79
2022-09-02T09:24:03.345Z,70.16
2022-09-02T09:25:03.354Z,69.35
2022-09-02T09:26:03.312Z,69.76
2022-09-02T09:27:03.276Z,69.72
2022-09-02T09:28:03.912Z,69.52
2022-09-02T09:29:03.214Z,68.82
2022-09-02T09:30:03.195Z,69.22
2022-09-02T09:31:03.153Z,69.32
2022-09-02T09:32:03.280Z,69.22
2022-09-02T09:33:03.154Z,68.68
2022-09-02T09:34:03.137Z,68.38
2022-09-02T09:35:03.023Z,68.29
2022-09-02T09:36:03.064Z,67.08
2022-09-02T09:37:03.001Z,66.78
2022-09-02T09:38:02.953Z,67.14
2022-09-02T09:39:02.936Z,67.35
2022-09-02T09:40:02.994Z,66.35
2022-09-02T09:41:02.903Z,67.65
2022-09-02T09:42:02.952Z,67.95
2022-09-02T09:44:02.798Z,66.55
2022-09-02T09:45:02.808Z,65.04
2022-09-02T09:46:02.799Z,65.24
2022-09-02T09:47:02.700Z,66.44
2022-09-02T09:48:02.710Z,66.44
2022-09-02T09:49:02.653Z,66.55
2022-09-02T09:50:02.618Z,67.05
2022-09-02T09:51:02.682Z,66.61
2022-09-02T09:52:02.578Z,66.71
2022-09-02T09:53:02.553Z,66.41
2022-09-02T09:54:02.551Z,66.78
2022-09-02T09:55:02.493Z,65.48
2022-09-02T09:56:02.529Z,64.18
2022-09-02T09:57:02.644Z,64.07
2022-09-02T09:58:02.400Z,64.04
2022-09-02T09:59:02.377Z,63.24
2022-09-02T10:00:02.352Z,64.34
2022-09-02T10:01:02.370Z,63.45
2022-09-02T10:02:02.323Z,63.95
2022-09-02T10:03:02.326Z,62.74
2022-09-02T10:04:02.230Z,62.84
2022-09-02T10:05:02.230Z,62.74
2022-09-02T10:06:02.185Z,63.04
2022-09-02T10:07:02.191Z,63.04
2022-09-02T10:08:02.139Z,62.71
2022-09-02T10:09:02.094Z,62.61
2022-09-02T10:10:02.067Z,61.91
2022-09-02T10:11:02.050Z,62.01
2022-09-02T10:12:02.178Z,61.81
2022-09-02T10:13:02.050Z,62.08
2022-09-02T10:14:02.006Z,62.08
2022-09-02T10:15:01.933Z,62.18
2022-09-02T10:16:01.989Z,62.55
2022-09-02T10:17:02.088Z,62.55
2022-09-02T10:18:01.878Z,62.95
2022-09-02T10:19:01.846Z,62.75
2022-09-02T10:20:04.737Z,62.45
2022-09-02T10:21:14.881Z,61.92
2022-09-02T10:22:01.756Z,60.55
2022-09-02T10:23:01.803Z,60.25
2022-09-02T10:24:01.708Z,60.38
2022-09-02T10:25:01.666Z,60.48
2022-09-02T10:26:01.655Z,61.38
2022-09-02T10:27:01.611Z,61.58
2022-09-02T10:28:02.207Z,62.08
2022-09-02T10:29:04.182Z,60.78
2022-09-02T10:30:01.549Z,60.48
2022-09-02T10:31:01.653Z,61.78
2022-09-02T10:32:01.524Z,61.18
2022-09-02T10:33:01.462Z,61.18
2022-09-02T10:34:01.483Z,61.65
2022-09-02T10:35:01.454Z,61.15
2022-09-02T10:36:01.394Z,61.65
2022-09-02T10:37:01.383Z,60.42
2022-09-02T10:38:01.346Z,59.62
2022-09-02T10:39:01.303Z,59.65
2022-09-02T10:40:01.575Z,60.35
2022-09-02T10:41:01.363Z,59.62
2022-09-02T10:42:01.229Z,59.52
2022-09-02T10:43:01.195Z,59.30
2022-09-02T10:44:01.170Z,59.09
2022-09-02T10:45:01.177Z,59.97
2022-09-02T10:46:01.225Z,59.74
2022-09-02T10:47:01.140Z,58.94
2022-09-02T10:48:01.067Z,57.71
2022-09-02T10:49:01.099Z,56.51
2022-09-02T10:50:01.009Z,56.79
2022-09-02T10:51:01.067Z,55.58
2022-09-02T10:52:01.078Z,55.49
2022-09-02T10:53:01.978Z,55.58
2022-09-02T10:54:00.937Z,54.89
2022-09-02T10:55:00.882Z,55.56
2022-09-02T10:56:01.107Z,55.46
2022-09-02T10:57:00.929Z,55.36
2022-09-02T10:58:00.811Z,54.83
2022-09-02T10:59:00.822Z,54.64
2022-09-02T11:00:00.747Z,54.41
2022-09-02T11:01:00.862Z,53.31
2022-09-02T11:02:00.766Z,53.11
2022-09-02T11:03:00.764Z,53.09
2022-09-02T11:04:00.728Z,53.89
2022-09-02T11:05:00.630Z,52.99
2022-09-02T11:06:00.613Z,52.86
2022-09-02T11:07:03.354Z,51.57
2022-09-02T11:08:00.700Z,51.25
2022-09-02T11:09:00.528Z,50.35
2022-09-02T11:10:00.494Z,51.05
2022-09-02T11:11:00.471Z,51.35
2022-09-02T11:12:01.334Z,50.75
2022-09-02T11:13:00.441Z,50.45
2022-09-02T11:14:00.455Z,50.45
2022-09-02T11:15:00.382Z,50.05
2022-09-02T11:16:00.399Z,51.05
2022-09-02T11:17:00.325Z,51.37
2022-09-02T11:18:00.438Z,50.48
2022-09-02T11:19:00.334Z,48.98
2022-09-02T11:20:00.280Z,49.98
2022-09-02T11:21:00.234Z,48.66
2022-09-02T11:22:00.221Z,49.76
2022-09-02T11:23:00.183Z,48.56
2022-09-02T11:24:00.720Z,48.46
2022-09-02T11:25:00.140Z,48.66
2022-09-02T11:26:00.233Z,48.96
2022-09-02T11:27:00.097Z,48.86
2022-09-02T11:28:00.073Z,49.26
2022-09-02T11:29:00.126Z,50.95
2022-09-02T11:30:00.025Z,50.25
2022-09-02T11:31:00.319Z,51.15
2022-09-02T11:31:59.972Z,51.35
2022-09-02T11:32:59.986Z,50.95
2022-09-02T11:33:59.930Z,51.07
2022-09-02T11:34:59.957Z,51.47
2022-09-02T11:35:59.919Z,51.97
2022-09-02T11:36:59.947Z,52.37
2022-09-02T11:37:59.828Z,52.17
2022-09-02T11:38:59.807Z,52.27
2022-09-02T11:40:17.222Z,52.86
2022-09-02T11:41:59.792Z,51.37
2022-09-02T11:42:59.710Z,52.07
2022-09-02T11:43:59.711Z,51.17
2022-09-02T11:44:59.733Z,51.67
2022-09-02T11:45:59.844Z,50.78
2022-09-02T11:46:59.695Z,51.27
2022-09-02T11:47:59.601Z,50.25
2022-09-02T11:48:59.574Z,49.95
2022-09-02T11:49:59.563Z,49.76
2022-09-02T11:50:59.528Z,49.83
2022-09-02T11:52:01.238Z,49.73
2022-09-02T11:52:59.481Z,49.73
2022-09-02T11:53:59.462Z,49.53
2022-09-02T11:55:02.480Z,49.83
2022-09-02T11:55:59.413Z,50.13
2022-09-02T11:56:59.390Z,49.51
2022-09-02T11:57:59.462Z,49.63
2022-09-02T11:58:59.437Z,50.05
2022-09-02T11:59:59.313Z,48.86
2022-09-02T12:00:59.292Z,48.96
2022-09-02T12:01:59.456Z,50.03
2022-09-02T12:03:00.867Z,50.33
2022-09-02T12:04:41.982Z,50.10
2022-09-02T12:05:01.248Z,50.50
2022-09-02T12:05:59.337Z,50.40
2022-09-02T12:07:01.377Z,49.61
2022-09-02T12:07:59.134Z,49.49
2022-09-02T12:08:59.170Z,49.29
2022-09-02T12:09:59.110Z,48.89
2022-09-02T12:10:59.192Z,49.78
2022-09-02T12:11:59.060Z,50.10
2022-09-02T12:12:59.059Z,49.38
2022-09-02T12:14:01.719Z,49.80
2022-09-02T12:14:58.970Z,49.91
2022-09-02T12:15:59.030Z,49.31
2022-09-02T12:16:58.926Z,49.01
2022-09-02T12:17:58.908Z,49.11
2022-09-02T12:18:58.886Z,49.61
2022-09-02T12:19:58.947Z,49.01
2022-09-02T12:20:58.855Z,49.91
2022-09-02T12:21:58.816Z,48.71
2022-09-02T12:22:58.790Z,48.94
2022-09-02T12:23:58.769Z,49.13
2022-09-02T12:24:58.799Z,50.23
2022-09-02T12:25:58.723Z,48.96
2022-09-02T12:26:58.711Z,50.48
2022-09-02T12:27:58.679Z,50.50
2022-09-02T12:28:58.658Z,49.93
2022-09-02T12:29:58.828Z,50.43
2022-09-02T12:30:58.679Z,51.03
2022-09-02T12:31:58.589Z,50.02
2022-09-02T12:32:58.565Z,50.50
2022-09-02T12:33:58.582Z,50.68
2022-09-02T12:34:58.516Z,50.25
2022-09-02T12:35:58.549Z,48.94
2022-09-02T12:36:58.474Z,49.63
2022-09-02T12:37:58.447Z,49.46
2022-09-02T12:38:58.425Z,48.83
2022-09-02T12:39:58.406Z,48.26
2022-09-02T12:40:58.488Z,48.21
2022-09-02T12:41:58.353Z,49.43
2022-09-02T12:42:58.335Z,48.23
2022-09-02T12:43:58.305Z,48.93
2022-09-02T12:44:58.285Z,48.75
2022-09-02T12:45:58.264Z,49.45
2022-09-02T12:46:58.382Z,49.45
2022-09-02T12:47:58.216Z,49.43
2022-09-02T12:48:58.191Z,49.73
2022-09-02T12:49:58.228Z,50.23
2022-09-02T12:50:58.156Z,50.32
2022-09-02T12:51:58.135Z,50.10
2022-09-02T12:52:58.171Z,50.27
2022-09-02T12:53:58.072Z,50.08